sensor_id;sensor_type;location;lat;lon;timestamp;P1;durP1;ratioP1;P2;durP2;ratioP2
74939;SDS011;63505;45.226;37.908;2023-04-01T00:00:53;5.43;;;2.90;;
74939;SDS011;63505;45.226;37.908;2023-04-01T00:03:20;1.45;;;1.13;;
74939;SDS011;63505;45.226;37.908;2023-04-01T00:05:46;2.08;;;1.33;;
74939;SDS011;63505;45.226;37.908;2023-04-01T00:08:12;3.30;;;2.13;;
74939;SDS011;63505;45.226;37.908;2023-04-01T00:10:38;1.95;;;0.95;;
74939;SDS011;63505;45.226;37.908;2023-04-01T00:13:04;7.90;;;2.83;;
74939;SDS011;63505;45.226;37.908;2023-04-01T00:15:30;2.38;;;1.20;;
74939;SDS011;63505;45.226;37.908;2023-04-01T00:17:56;2.45;;;1.42;;
74939;SDS011;63505;45.226;37.908;2023-04-01T00:20:22;2.03;;;0.82;;
74939;SDS011;63505;45.226;37.908;2023-04-01T00:22:48;1.13;;;0.70;;
74939;SDS011;63505;45.226;37.908;2023-04-01T00:25:15;1.35;;;0.73;;
74939;SDS011;63505;45.226;37.908;2023-04-01T00:27:41;10.43;;;1.10;;
74939;SDS011;63505;45.226;37.908;2023-04-01T00:30:07;0.95;;;0.90;;
74939;SDS011;63505;45.226;37.908;2023-04-01T00:32:34;2.13;;;1.08;;
74939;SDS011;63505;45.226;37.908;2023-04-01T00:35:00;0.35;;;0.22;;
74939;SDS011;63505;45.226;37.908;2023-04-01T00:37:27;1.98;;;1.08;;
74939;SDS011;63505;45.226;37.908;2023-04-01T00:39:53;0.70;;;0.45;;
74939;SDS011;63505;45.226;37.908;2023-04-01T00:42:19;2.50;;;1.38;;
74939;SDS011;63505;45.226;37.908;2023-04-01T00:44:47;7.35;;;4.35;;
74939;SDS011;63505;45.226;37.908;2023-04-01T00:47:16;1.17;;;0.95;;
74939;SDS011;63505;45.226;37.908;2023-04-01T00:49:43;5.63;;;3.92;;
74939;SDS011;63505;45.226;37.908;2023-04-01T00:52:14;3.28;;;2.28;;
74939;SDS011;63505;45.226;37.908;2023-04-01T00:54:44;2.03;;;1.25;;
74939;SDS011;63505;45.226;37.908;2023-04-01T00:57:15;3.15;;;2.13;;
74939;SDS011;63505;45.226;37.908;2023-04-01T01:00:04;1.98;;;1.77;;
74939;SDS011;63505;45.226;37.908;2023-04-01T01:02:32;11.38;;;3.28;;
74939;SDS011;63505;45.226;37.908;2023-04-01T01:05:00;1.85;;;1.08;;
74939;SDS011;63505;45.226;37.908;2023-04-01T01:10:18;0.90;;;0.63;;
74939;SDS011;63505;45.226;37.908;2023-04-01T01:20:40;11.38;;;3.63;;
74939;SDS011;63505;45.226;37.908;2023-04-01T01:26:11;2.08;;;1.52;;
74939;SDS011;63505;45.226;37.908;2023-04-01T01:31:52;1.95;;;1.52;;
74939;SDS011;63505;45.226;37.908;2023-04-01T01:37:56;4.90;;;2.60;;
74939;SDS011;63505;45.226;37.908;2023-04-01T01:40:26;15.05;;;4.70;;
74939;SDS011;63505;45.226;37.908;2023-04-01T01:42:55;15.35;;;5.57;;
74939;SDS011;63505;45.226;37.908;2023-04-01T01:45:24;6.43;;;2.50;;
74939;SDS011;63505;45.226;37.908;2023-04-01T01:47:52;8.75;;;4.03;;
74939;SDS011;63505;45.226;37.908;2023-04-01T01:50:23;13.15;;;6.63;;
74939;SDS011;63505;45.226;37.908;2023-04-01T01:52:50;24.52;;;9.75;;
74939;SDS011;63505;45.226;37.908;2023-04-01T01:55:30;23.42;;;8.43;;
74939;SDS011;63505;45.226;37.908;2023-04-01T01:57:59;6.43;;;4.75;;
74939;SDS011;63505;45.226;37.908;2023-04-01T02:00:32;13.82;;;5.38;;
74939;SDS011;63505;45.226;37.908;2023-04-01T02:03:00;10.52;;;4.97;;
74939;SDS011;63505;45.226;37.908;2023-04-01T02:05:27;4.38;;;2.35;;
74939;SDS011;63505;45.226;37.908;2023-04-01T02:08:07;4.38;;;2.72;;
74939;SDS011;63505;45.226;37.908;2023-04-01T02:10:38;4.43;;;2.22;;
74939;SDS011;63505;45.226;37.908;2023-04-01T02:13:10;7.20;;;1.50;;
74939;SDS011;63505;45.226;37.908;2023-04-01T02:15:50;4.80;;;2.20;;
74939;SDS011;63505;45.226;37.908;2023-04-01T02:18:20;7.43;;;2.60;;
74939;SDS011;63505;45.226;37.908;2023-04-01T02:20:47;4.75;;;3.00;;
74939;SDS011;63505;45.226;37.908;2023-04-01T02:23:15;7.35;;;3.38;;
74939;SDS011;63505;45.226;37.908;2023-04-01T02:25:41;4.93;;;2.50;;
74939;SDS011;63505;45.226;37.908;2023-04-01T02:28:09;4.55;;;2.60;;
74939;SDS011;63505;45.226;37.908;2023-04-01T02:30:38;4.70;;;1.70;;
74939;SDS011;63505;45.226;37.908;2023-04-01T02:33:06;2.08;;;1.15;;
74939;SDS011;63505;45.226;37.908;2023-04-01T02:35:34;2.33;;;1.42;;
74939;SDS011;63505;45.226;37.908;2023-04-01T02:38:02;1.55;;;1.05;;
74939;SDS011;63505;45.226;37.908;2023-04-01T02:40:28;2.17;;;1.48;;
74939;SDS011;63505;45.226;37.908;2023-04-01T02:42:54;2.25;;;1.25;;
74939;SDS011;63505;45.226;37.908;2023-04-01T02:45:20;3.15;;;1.52;;
74939;SDS011;63505;45.226;37.908;2023-04-01T02:47:46;1.55;;;0.90;;
74939;SDS011;63505;45.226;37.908;2023-04-01T02:50:12;1.02;;;0.73;;
74939;SDS011;63505;45.226;37.908;2023-04-01T02:52:38;1.02;;;0.70;;
74939;SDS011;63505;45.226;37.908;2023-04-01T02:55:04;1.17;;;0.70;;
74939;SDS011;63505;45.226;37.908;2023-04-01T02:57:31;1.35;;;0.82;;
74939;SDS011;63505;45.226;37.908;2023-04-01T02:59:57;3.33;;;1.95;;
74939;SDS011;63505;45.226;37.908;2023-04-01T03:02:23;2.17;;;0.57;;
74939;SDS011;63505;45.226;37.908;2023-04-01T03:04:49;1.00;;;0.60;;
74939;SDS011;63505;45.226;37.908;2023-04-01T03:07:15;1.88;;;0.93;;
74939;SDS011;63505;45.226;37.908;2023-04-01T03:09:41;0.15;;;0.13;;
74939;SDS011;63505;45.226;37.908;2023-04-01T03:12:07;2.15;;;1.23;;
74939;SDS011;63505;45.226;37.908;2023-04-01T03:14:43;1.00;;;0.28;;
74939;SDS011;63505;45.226;37.908;2023-04-01T03:17:09;2.90;;;1.55;;
74939;SDS011;63505;45.226;37.908;2023-04-01T03:19:35;4.53;;;1.13;;
74939;SDS011;63505;45.226;37.908;2023-04-01T03:22:05;1.73;;;1.10;;
74939;SDS011;63505;45.226;37.908;2023-04-01T03:24:31;8.45;;;2.05;;
74939;SDS011;63505;45.226;37.908;2023-04-01T03:26:57;2.50;;;0.82;;
74939;SDS011;63505;45.226;37.908;2023-04-01T03:29:23;3.20;;;2.25;;
74939;SDS011;63505;45.226;37.908;2023-04-01T03:31:49;1.77;;;1.17;;
74939;SDS011;63505;45.226;37.908;2023-04-01T03:34:15;4.18;;;1.20;;
74939;SDS011;63505;45.226;37.908;2023-04-01T03:36:41;4.03;;;0.98;;
74939;SDS011;63505;45.226;37.908;2023-04-01T03:39:06;1.85;;;1.02;;
74939;SDS011;63505;45.226;37.908;2023-04-01T03:41:39;2.10;;;0.98;;
74939;SDS011;63505;45.226;37.908;2023-04-01T03:44:06;2.97;;;1.67;;
74939;SDS011;63505;45.226;37.908;2023-04-01T03:46:32;1.80;;;1.25;;
74939;SDS011;63505;45.226;37.908;2023-04-01T03:48:57;0.57;;;0.30;;
74939;SDS011;63505;45.226;37.908;2023-04-01T03:51:23;3.55;;;2.28;;
74939;SDS011;63505;45.226;37.908;2023-04-01T03:53:49;1.70;;;0.95;;
74939;SDS011;63505;45.226;37.908;2023-04-01T03:56:15;1.63;;;0.85;;
74939;SDS011;63505;45.226;37.908;2023-04-01T03:58:41;1.75;;;1.23;;
74939;SDS011;63505;45.226;37.908;2023-04-01T04:01:15;3.13;;;1.40;;
74939;SDS011;63505;45.226;37.908;2023-04-01T04:03:44;2.38;;;0.77;;
74939;SDS011;63505;45.226;37.908;2023-04-01T04:06:15;3.45;;;1.75;;
74939;SDS011;63505;45.226;37.908;2023-04-01T04:08:42;1.65;;;1.10;;
74939;SDS011;63505;45.226;37.908;2023-04-01T04:11:09;5.20;;;1.45;;
74939;SDS011;63505;45.226;37.908;2023-04-01T04:13:39;4.90;;;2.65;;
74939;SDS011;63505;45.226;37.908;2023-04-01T04:16:06;7.53;;;3.13;;
74939;SDS011;63505;45.226;37.908;2023-04-01T04:18:36;2.30;;;1.27;;
74939;SDS011;63505;45.226;37.908;2023-04-01T04:21:03;1.65;;;0.93;;
74939;SDS011;63505;45.226;37.908;2023-04-01T04:23:29;1.92;;;1.25;;
74939;SDS011;63505;45.226;37.908;2023-04-01T04:25:58;3.58;;;1.48;;
74939;SDS011;63505;45.226;37.908;2023-04-01T04:28:32;8.15;;;2.05;;
74939;SDS011;63505;45.226;37.908;2023-04-01T04:30:58;3.30;;;1.77;;
74939;SDS011;63505;45.226;37.908;2023-04-01T04:33:25;2.72;;;1.45;;
74939;SDS011;63505;45.226;37.908;2023-04-01T04:35:54;10.05;;;2.45;;
74939;SDS011;63505;45.226;37.908;2023-04-01T04:38:22;5.28;;;2.03;;
74939;SDS011;63505;45.226;37.908;2023-04-01T04:40:48;3.47;;;1.38;;
74939;SDS011;63505;45.226;37.908;2023-04-01T04:43:15;3.00;;;2.00;;
74939;SDS011;63505;45.226;37.908;2023-04-01T04:45:42;1.25;;;0.88;;
74939;SDS011;63505;45.226;37.908;2023-04-01T04:48:10;5.25;;;2.88;;
74939;SDS011;63505;45.226;37.908;2023-04-01T04:50:41;2.40;;;1.60;;
74939;SDS011;63505;45.226;37.908;2023-04-01T04:53:11;1.77;;;1.13;;
74939;SDS011;63505;45.226;37.908;2023-04-01T04:55:42;3.10;;;1.67;;
74939;SDS011;63505;45.226;37.908;2023-04-01T04:58:20;4.07;;;1.67;;
74939;SDS011;63505;45.226;37.908;2023-04-01T05:00:46;4.30;;;1.35;;
74939;SDS011;63505;45.226;37.908;2023-04-01T05:03:20;5.25;;;1.90;;
74939;SDS011;63505;45.226;37.908;2023-04-01T05:05:50;2.85;;;1.60;;
74939;SDS011;63505;45.226;37.908;2023-04-01T05:08:17;1.80;;;0.65;;
74939;SDS011;63505;45.226;37.908;2023-04-01T05:10:43;2.45;;;1.27;;
74939;SDS011;63505;45.226;37.908;2023-04-01T05:13:11;0.75;;;0.43;;
74939;SDS011;63505;45.226;37.908;2023-04-01T05:15:37;4.03;;;1.48;;
74939;SDS011;63505;45.226;37.908;2023-04-01T05:18:03;2.42;;;1.90;;
74939;SDS011;63505;45.226;37.908;2023-04-01T05:20:29;3.75;;;1.35;;
74939;SDS011;63505;45.226;37.908;2023-04-01T05:22:56;3.53;;;1.33;;
74939;SDS011;63505;45.226;37.908;2023-04-01T05:25:23;5.53;;;1.83;;
74939;SDS011;63505;45.226;37.908;2023-04-01T05:27:49;3.28;;;1.70;;
74939;SDS011;63505;45.226;37.908;2023-04-01T05:30:15;2.58;;;1.20;;
74939;SDS011;63505;45.226;37.908;2023-04-01T05:32:54;3.60;;;1.08;;
74939;SDS011;63505;45.226;37.908;2023-04-01T05:35:20;4.32;;;0.73;;
74939;SDS011;63505;45.226;37.908;2023-04-01T05:37:46;1.48;;;0.80;;
74939;SDS011;63505;45.226;37.908;2023-04-01T05:40:12;1.90;;;0.85;;
74939;SDS011;63505;45.226;37.908;2023-04-01T05:42:38;3.92;;;0.80;;
74939;SDS011;63505;45.226;37.908;2023-04-01T05:45:05;1.60;;;0.73;;
74939;SDS011;63505;45.226;37.908;2023-04-01T05:47:50;6.03;;;2.00;;
74939;SDS011;63505;45.226;37.908;2023-04-01T05:50:17;3.78;;;1.77;;
74939;SDS011;63505;45.226;37.908;2023-04-01T05:52:43;2.40;;;1.42;;
74939;SDS011;63505;45.226;37.908;2023-04-01T05:55:10;1.90;;;1.15;;
74939;SDS011;63505;45.226;37.908;2023-04-01T05:57:36;1.65;;;0.80;;
74939;SDS011;63505;45.226;37.908;2023-04-01T06:00:04;1.00;;;0.60;;
74939;SDS011;63505;45.226;37.908;2023-04-01T06:02:37;3.95;;;0.82;;
74939;SDS011;63505;45.226;37.908;2023-04-01T06:05:27;3.42;;;1.30;;
74939;SDS011;63505;45.226;37.908;2023-04-01T06:07:59;1.15;;;0.80;;
74939;SDS011;63505;45.226;37.908;2023-04-01T06:10:53;2.97;;;1.42;;
74939;SDS011;63505;45.226;37.908;2023-04-01T06:16:36;2.53;;;1.75;;
74939;SDS011;63505;45.226;37.908;2023-04-01T06:57:03;1.70;;;0.82;;
74939;SDS011;63505;45.226;37.908;2023-04-01T06:59:40;1.73;;;0.73;;
74939;SDS011;63505;45.226;37.908;2023-04-01T07:04:37;2.25;;;1.10;;
74939;SDS011;63505;45.226;37.908;2023-04-01T07:07:32;2.45;;;1.00;;
74939;SDS011;63505;45.226;37.908;2023-04-01T07:10:28;1.85;;;0.80;;
74939;SDS011;63505;45.226;37.908;2023-04-01T07:16:32;1.23;;;0.63;;
74939;SDS011;63505;45.226;37.908;2023-04-01T07:19:06;1.92;;;0.73;;
74939;SDS011;63505;45.226;37.908;2023-04-01T07:22:14;1.98;;;0.50;;
74939;SDS011;63505;45.226;37.908;2023-04-01T07:25:11;2.50;;;0.80;;
74939;SDS011;63505;45.226;37.908;2023-04-01T07:28:05;2.50;;;0.95;;
74939;SDS011;63505;45.226;37.908;2023-04-01T07:34:00;1.65;;;0.50;;
74939;SDS011;63505;45.226;37.908;2023-04-01T07:36:38;2.15;;;0.88;;
74939;SDS011;63505;45.226;37.908;2023-04-01T07:44:59;1.85;;;0.93;;
74939;SDS011;63505;45.226;37.908;2023-04-01T07:53:48;3.63;;;1.50;;
74939;SDS011;63505;45.226;37.908;2023-04-01T07:56:45;1.08;;;0.45;;
74939;SDS011;63505;45.226;37.908;2023-04-01T08:08:38;4.95;;;0.80;;
74939;SDS011;63505;45.226;37.908;2023-04-01T08:12:10;4.20;;;1.20;;
74939;SDS011;63505;45.226;37.908;2023-04-01T08:18:01;29.40;;;2.78;;
74939;SDS011;63505;45.226;37.908;2023-04-01T08:20:58;3.28;;;1.25;;
74939;SDS011;63505;45.226;37.908;2023-04-01T08:23:37;2.00;;;0.98;;
74939;SDS011;63505;45.226;37.908;2023-04-01T08:28:45;3.05;;;0.35;;
74939;SDS011;63505;45.226;37.908;2023-04-01T08:31:25;1.98;;;0.47;;
74939;SDS011;63505;45.226;37.908;2023-04-01T08:34:04;0.93;;;0.45;;
74939;SDS011;63505;45.226;37.908;2023-04-01T08:36:38;2.35;;;1.02;;
74939;SDS011;63505;45.226;37.908;2023-04-01T08:39:14;1.52;;;1.15;;
74939;SDS011;63505;45.226;37.908;2023-04-01T08:56:21;1.75;;;1.02;;
74939;SDS011;63505;45.226;37.908;2023-04-01T08:58:59;1.42;;;0.80;;
74939;SDS011;63505;45.226;37.908;2023-04-01T09:18:53;2.13;;;0.57;;
74939;SDS011;63505;45.226;37.908;2023-04-01T09:35:25;1.02;;;0.57;;
74939;SDS011;63505;45.226;37.908;2023-04-01T10:13:49;3.28;;;0.95;;
74939;SDS011;63505;45.226;37.908;2023-04-01T10:21:59;6.15;;;1.67;;
74939;SDS011;63505;45.226;37.908;2023-04-01T10:34:05;1.98;;;0.77;;
74939;SDS011;63505;45.226;37.908;2023-04-01T10:36:58;2.20;;;1.13;;
74939;SDS011;63505;45.226;37.908;2023-04-01T10:46:59;2.40;;;0.82;;
74939;SDS011;63505;45.226;37.908;2023-04-01T10:57:53;2.10;;;0.75;;
74939;SDS011;63505;45.226;37.908;2023-04-01T11:01:22;2.40;;;1.17;;
74939;SDS011;63505;45.226;37.908;2023-04-01T11:08:16;2.33;;;1.00;;
74939;SDS011;63505;45.226;37.908;2023-04-01T11:22:24;1.50;;;0.88;;
74939;SDS011;63505;45.226;37.908;2023-04-01T11:31:22;3.55;;;1.23;;
74939;SDS011;63505;45.226;37.908;2023-04-01T11:46:33;1.90;;;0.70;;
74939;SDS011;63505;45.226;37.908;2023-04-01T11:55:10;2.97;;;1.10;;
74939;SDS011;63505;45.226;37.908;2023-04-01T12:06:02;4.50;;;1.10;;
74939;SDS011;63505;45.226;37.908;2023-04-01T12:14:31;1.52;;;0.70;;
74939;SDS011;63505;45.226;37.908;2023-04-01T12:19:54;2.60;;;0.95;;
74939;SDS011;63505;45.226;37.908;2023-04-01T12:25:22;2.03;;;1.13;;
74939;SDS011;63505;45.226;37.908;2023-04-01T12:31:20;2.80;;;0.93;;
74939;SDS011;63505;45.226;37.908;2023-04-01T12:36:35;1.95;;;1.20;;
74939;SDS011;63505;45.226;37.908;2023-04-01T12:55:52;3.20;;;1.33;;
74939;SDS011;63505;45.226;37.908;2023-04-01T13:30:01;2.35;;;1.02;;
74939;SDS011;63505;45.226;37.908;2023-04-01T13:37:52;4.28;;;1.02;;
74939;SDS011;63505;45.226;37.908;2023-04-01T13:44:01;1.35;;;0.65;;
74939;SDS011;63505;45.226;37.908;2023-04-01T13:50:16;2.10;;;0.90;;
74939;SDS011;63505;45.226;37.908;2023-04-01T13:52:23;4.35;;;2.08;;
74939;SDS011;63505;45.226;37.908;2023-04-01T13:54:58;1.80;;;0.98;;
74939;SDS011;63505;45.226;37.908;2023-04-01T14:26:03;3.15;;;1.38;;
74939;SDS011;63505;45.226;37.908;2023-04-01T14:28:45;5.60;;;2.30;;
74939;SDS011;63505;45.226;37.908;2023-04-01T14:34:05;3.08;;;1.40;;
74939;SDS011;63505;45.226;37.908;2023-04-01T14:45:42;2.90;;;1.33;;
74939;SDS011;63505;45.226;37.908;2023-04-01T14:47:58;4.60;;;1.40;;
74939;SDS011;63505;45.226;37.908;2023-04-01T14:50:43;1.75;;;0.70;;
74939;SDS011;63505;45.226;37.908;2023-04-01T14:53:12;2.88;;;1.27;;
74939;SDS011;63505;45.226;37.908;2023-04-01T14:55:55;4.18;;;2.00;;
74939;SDS011;63505;45.226;37.908;2023-04-01T14:58:24;4.95;;;2.42;;
74939;SDS011;63505;45.226;37.908;2023-04-01T15:00:58;4.68;;;1.45;;
74939;SDS011;63505;45.226;37.908;2023-04-01T15:31:06;9.05;;;4.75;;
74939;SDS011;63505;45.226;37.908;2023-04-01T15:44:33;5.82;;;1.90;;
74939;SDS011;63505;45.226;37.908;2023-04-01T15:50:21;5.35;;;3.03;;
74939;SDS011;63505;45.226;37.908;2023-04-01T16:01:18;9.60;;;4.38;;
74939;SDS011;63505;45.226;37.908;2023-04-01T16:06:57;10.90;;;3.83;;
74939;SDS011;63505;45.226;37.908;2023-04-01T16:15:28;9.23;;;1.80;;
74939;SDS011;63505;45.226;37.908;2023-04-01T16:20:40;10.75;;;3.97;;
74939;SDS011;63505;45.226;37.908;2023-04-01T16:23:18;12.65;;;3.83;;
74939;SDS011;63505;45.226;37.908;2023-04-01T16:25:59;6.07;;;3.05;;
74939;SDS011;63505;45.226;37.908;2023-04-01T16:34:34;10.73;;;3.05;;
74939;SDS011;63505;45.226;37.908;2023-04-01T16:37:07;4.88;;;2.55;;
74939;SDS011;63505;45.226;37.908;2023-04-01T16:42:49;4.72;;;1.83;;
74939;SDS011;63505;45.226;37.908;2023-04-01T16:45:24;2.22;;;0.85;;
74939;SDS011;63505;45.226;37.908;2023-04-01T16:53:08;3.33;;;1.23;;
74939;SDS011;63505;45.226;37.908;2023-04-01T16:58:27;6.82;;;1.95;;
74939;SDS011;63505;45.226;37.908;2023-04-01T17:03:52;3.63;;;1.23;;
74939;SDS011;63505;45.226;37.908;2023-04-01T17:17:18;22.15;;;8.68;;
74939;SDS011;63505;45.226;37.908;2023-04-01T17:25:46;13.02;;;4.80;;
74939;SDS011;63505;45.226;37.908;2023-04-01T17:28:29;16.55;;;5.88;;
74939;SDS011;63505;45.226;37.908;2023-04-01T17:31:11;14.55;;;5.10;;
74939;SDS011;63505;45.226;37.908;2023-04-01T17:59:48;4.20;;;1.80;;
74939;SDS011;63505;45.226;37.908;2023-04-01T18:11:59;4.22;;;2.15;;
74939;SDS011;63505;45.226;37.908;2023-04-01T18:14:36;7.18;;;2.05;;
74939;SDS011;63505;45.226;37.908;2023-04-01T18:23:04;9.15;;;2.13;;
74939;SDS011;63505;45.226;37.908;2023-04-01T18:25:44;5.20;;;1.85;;
74939;SDS011;63505;45.226;37.908;2023-04-01T18:33:54;10.05;;;2.08;;
74939;SDS011;63505;45.226;37.908;2023-04-01T18:39:16;8.10;;;3.45;;
74939;SDS011;63505;45.226;37.908;2023-04-01T18:42:00;7.78;;;2.88;;
74939;SDS011;63505;45.226;37.908;2023-04-01T18:44:49;11.43;;;3.17;;
74939;SDS011;63505;45.226;37.908;2023-04-01T18:49:59;3.15;;;1.83;;
74939;SDS011;63505;45.226;37.908;2023-04-01T18:52:39;10.10;;;2.35;;
74939;SDS011;63505;45.226;37.908;2023-04-01T19:00:37;10.45;;;1.70;;
74939;SDS011;63505;45.226;37.908;2023-04-01T19:03:21;4.55;;;1.50;;
74939;SDS011;63505;45.226;37.908;2023-04-01T19:05:56;3.33;;;1.40;;
74939;SDS011;63505;45.226;37.908;2023-04-01T19:08:38;3.92;;;2.00;;
74939;SDS011;63505;45.226;37.908;2023-04-01T19:22:01;6.88;;;2.28;;
74939;SDS011;63505;45.226;37.908;2023-04-01T19:27:42;5.30;;;1.98;;
74939;SDS011;63505;45.226;37.908;2023-04-01T19:38:39;9.77;;;1.83;;
74939;SDS011;63505;45.226;37.908;2023-04-01T19:41:32;2.08;;;1.20;;
74939;SDS011;63505;45.226;37.908;2023-04-01T19:47:06;4.15;;;1.73;;
74939;SDS011;63505;45.226;37.908;2023-04-01T19:49:49;4.32;;;1.45;;
74939;SDS011;63505;45.226;37.908;2023-04-01T19:55:18;6.72;;;2.25;;
74939;SDS011;63505;45.226;37.908;2023-04-01T19:57:52;6.25;;;2.30;;
74939;SDS011;63505;45.226;37.908;2023-04-01T20:15:00;4.95;;;2.42;;
74939;SDS011;63505;45.226;37.908;2023-04-01T20:17:38;6.38;;;2.42;;
74939;SDS011;63505;45.226;37.908;2023-04-01T20:28:09;4.38;;;2.08;;
74939;SDS011;63505;45.226;37.908;2023-04-01T20:41:23;6.13;;;1.92;;
74939;SDS011;63505;45.226;37.908;2023-04-01T20:46:39;2.50;;;1.33;;
74939;SDS011;63505;45.226;37.908;2023-04-01T20:49:38;2.90;;;1.38;;
74939;SDS011;63505;45.226;37.908;2023-04-01T20:52:41;3.13;;;1.08;;
74939;SDS011;63505;45.226;37.908;2023-04-01T21:06:33;8.23;;;2.00;;
74939;SDS011;63505;45.226;37.908;2023-04-01T21:17:42;5.53;;;1.35;;
74939;SDS011;63505;45.226;37.908;2023-04-01T21:20:18;4.03;;;2.20;;
74939;SDS011;63505;45.226;37.908;2023-04-01T21:23:23;2.63;;;1.17;;
74939;SDS011;63505;45.226;37.908;2023-04-01T21:26:23;5.10;;;2.58;;
74939;SDS011;63505;45.226;37.908;2023-04-01T21:34:37;7.28;;;3.10;;
74939;SDS011;63505;45.226;37.908;2023-04-01T22:00:12;5.18;;;2.00;;
74939;SDS011;63505;45.226;37.908;2023-04-01T22:05:17;4.93;;;2.92;;
74939;SDS011;63505;45.226;37.908;2023-04-01T22:08:46;4.78;;;2.50;;
74939;SDS011;63505;45.226;37.908;2023-04-01T22:10:56;5.40;;;2.50;;
74939;SDS011;63505;45.226;37.908;2023-04-01T22:16:20;4.78;;;2.30;;
74939;SDS011;63505;45.226;37.908;2023-04-01T22:19:17;5.00;;;2.30;;
74939;SDS011;63505;45.226;37.908;2023-04-01T22:24:57;18.80;;;8.25;;
74939;SDS011;63505;45.226;37.908;2023-04-01T22:27:52;13.55;;;6.07;;
74939;SDS011;63505;45.226;37.908;2023-04-01T22:30:41;6.03;;;3.40;;
74939;SDS011;63505;45.226;37.908;2023-04-01T22:33:16;7.18;;;3.28;;
74939;SDS011;63505;45.226;37.908;2023-04-01T22:36:22;4.88;;;1.83;;
74939;SDS011;63505;45.226;37.908;2023-04-01T22:44:15;4.03;;;2.15;;
74939;SDS011;63505;45.226;37.908;2023-04-01T22:46:59;4.40;;;1.88;;
74939;SDS011;63505;45.226;37.908;2023-04-01T22:49:38;4.88;;;1.90;;
74939;SDS011;63505;45.226;37.908;2023-04-01T22:55:21;4.22;;;2.13;;
74939;SDS011;63505;45.226;37.908;2023-04-01T22:57:58;4.40;;;2.30;;
74939;SDS011;63505;45.226;37.908;2023-04-01T23:00:39;5.15;;;1.75;;
74939;SDS011;63505;45.226;37.908;2023-04-01T23:05:58;3.97;;;1.83;;
74939;SDS011;63505;45.226;37.908;2023-04-01T23:08:28;2.30;;;1.25;;
74939;SDS011;63505;45.226;37.908;2023-04-01T23:11:02;3.40;;;1.10;;
74939;SDS011;63505;45.226;37.908;2023-04-01T23:13:34;4.93;;;1.70;;
74939;SDS011;63505;45.226;37.908;2023-04-01T23:16:07;3.83;;;1.88;;
74939;SDS011;63505;45.226;37.908;2023-04-01T23:18:55;3.78;;;2.50;;
74939;SDS011;63505;45.226;37.908;2023-04-01T23:27:18;2.17;;;1.05;;
74939;SDS011;63505;45.226;37.908;2023-04-01T23:30:28;2.33;;;1.30;;
74939;SDS011;63505;45.226;37.908;2023-04-01T23:38:34;11.65;;;2.25;;
74939;SDS011;63505;45.226;37.908;2023-04-01T23:43:29;1.15;;;0.73;;
74939;SDS011;63505;45.226;37.908;2023-04-01T23:45:58;4.93;;;1.45;;
74939;SDS011;63505;45.226;37.908;2023-04-01T23:48:30;4.53;;;1.80;;
74939;SDS011;63505;45.226;37.908;2023-04-01T23:51:12;8.13;;;1.52;;
74939;SDS011;63505;45.226;37.908;2023-04-01T23:53:43;3.30;;;1.67;;
74939;SDS011;63505;45.226;37.908;2023-04-01T23:56:11;3.80;;;1.77;;
